Nearby METAR Reports

 

CYFC - Fredericton Airp, New Brunswick
Distance from station: E 14km
Updated: Thu, 18-Jul-2019 4:00am ADT
Clear
Clear
 Wind from WNW
Wind: WNW 9 km/h
Temperature: 14°C
Dew Point: 13°C
Humidity: 94%
Barometer: 1013.5 hPa
Clouds: Clear
Visibility: 14 km
2019/07/18 07:00 CYFC 180700Z AUTO 30005KT 9SM CLR 14/13 A2993 RMK SLP136
CYCX - Gagetown (can M, New Brunswick
Distance from station: E 22km
Updated: Thu, 18-Jul-2019 4:00am ADT
Clear
Clear
 Wind from NW
Wind: NW 9 km/h
Temperature: 14°C
Dew Point: 12°C
Humidity: 88%
Barometer: 1013.5 hPa
Clouds: Clear
Visibility: 14 km
2019/07/18 07:00 CYCX 180700Z AUTO 31005KT 9SM CLR 14/12 A2993 RMK SLP137
 
CYQM - Moncton Airport, New Brunswick
Distance from station: ENE 159km
Updated: Thu, 18-Jul-2019 4:00am ADT
Few Clouds
Few Clouds
 Wind from WNW
Wind: WNW 13 km/h
Temperature: 15°C
Dew Point: 12°C
Humidity: 82%
Barometer: 1011.5 hPa
Clouds: Few Clouds
Visibility: 24 km
Cloud details: Few Clouds 3353 m
Few Clouds 7925 m
2019/07/18 07:00 CYQM 180700Z 30007KT 15SM FEW110 FEW260 15/12 A2987 RMK AC1CI1 SLP117 DENSITY ALT 400FT
CYSJ - Saint John, New Brunswick
Distance from station: SE 88km
Updated: Thu, 18-Jul-2019 4:00am ADT
Few Clouds
Few Clouds
 Wind from N
Wind: N 19 km/h
Temperature: 16°C
Dew Point: 14°C
Humidity: 88%
Barometer: 1012.5 hPa
Clouds: Few Clouds
Visibility: 24 km
Cloud details: Few Clouds 3962 m
2019/07/18 07:00 CYSJ 180700Z 35010KT 15SM FEW130 16/14 A2990 RMK AC2 SLP126 DENSITY ALT 700FT
 
CWPE - Point Lepreau, New Brunswick
Distance from station: SSE 90km
Updated: Thu, 18-Jul-2019 4:00am ADT

 Wind from N
Wind: N 6 km/h
Temperature: 16°C
Dew Point: 14°C
Humidity: 88%
2019/07/18 07:00 CWPE 180700Z AUTO 35003KT 16/14 RMK AO1 SLP124 T01590135 51021
CWSS - St. Stephen (mar, New Brunswick
Distance from station: SSW 85km
Updated: Thu, 18-Jul-2019 4:00am ADT

 Wind from NNW
Wind: NNW 4 km/h
Temperature: 15°C
Dew Point: 13°C
Humidity: 88%
2019/07/18 07:00 CWSS 180700Z AUTO 33002KT 15/13 RMK AO1 SLP137 T01510133 52019
 
CYHZ - Halifax Intl Arp, Nova Scotia
Distance from station: ESE 273km
Updated: Thu, 18-Jul-2019 4:00am ADT
Mostly cloudy
Mostly cloudy
 Wind from NNW
Wind: NNW 17 km/h
Temperature: 18°C
Dew Point: 18°C
Humidity: 100%
Barometer: 1010.5 hPa
Clouds: Mostly cloudy
Visibility: 24 km
Cloud details: Few Clouds 853 m
Mostly cloudy 3658 m
2019/07/18 07:00 CYHZ 180700Z 34009KT 15SM FEW028 BKN120 18/18 A2984 RMK SC2AC5 SLP106 DENSITY ALT 1100FT
CYAW - Shearwater(Can M, Nova Scotia
Distance from station: ESE 285km
Updated: Wed, 17-Jul-2019 6:34pm ADT
NOT Current
Light rain, Showers, Overcast
Light rain, Showers, Overcast
 Wind from SW
Wind: SW 9 km/h
Temperature: 19°C
Dew Point: 18°C
Humidity: 94%
Barometer: 1009.8 hPa
Summary: Light rain, Showers
Clouds: Overcast
Visibility: 10 km
Cloud details: Few Clouds 244 m
Mostly cloudy 1219 m
Overcast 3658 m
2019/07/17 21:34 CYAW 172134Z 22005KT 6SM -SHRA FEW008 BKN040 OVC120 19/18 A2982 RMK SF2SC4AC2 DA1064FT LAST OBS/NXT 181200 UTC SLP100
 
CYZX - Greenwood (can M, Nova Scotia
Distance from station: SE 169km
Updated: Thu, 18-Jul-2019 4:00am ADT
Mostly cloudy
Mostly cloudy
 Wind from N
Wind: N 7 km/h
Temperature: 20°C
Dew Point: 17°C
Humidity: 83%
Barometer: 1011.9 hPa
Clouds: Mostly cloudy
Visibility: 19 km
Cloud details: Few Clouds 1951 m
Mostly cloudy 3962 m
2019/07/18 07:00 CYZX 180700Z 36004KT 12SM FEW064 BKN130 20/17 A2988 RMK SC2AC3 SLP120
CYQI - Yarmouth Airport, Nova Scotia
Distance from station: SSE 230km
Updated: Thu, 18-Jul-2019 4:00am ADT
Overcast
Overcast
 Wind from N
Wind: N 13 km/h
Temperature: 18°C
Dew Point: 17°C
Humidity: 94%
Barometer: 1011.5 hPa
Clouds: Overcast
Visibility: 14 km
Cloud details: Partly cloudy 61 m
Mostly cloudy 1280 m
Overcast 3048 m
2019/07/18 07:00 CYQI 180700Z 35007KT 9SM SCT002 BKN042 OVC100 18/17 A2987 RMK SF3SC2AC3 SLP117 DENSITY ALT 600FT
 
KHUL - Houlton, Maine, USA
Distance from station: WNW 90km
Updated: Thu, 18-Jul-2019 4:05am ADT
Mist, Clear
Mist, Clear
 Wind from ESE
Wind: ESE 6 km/h
Temperature: 11°C
Dew Point: 9°C
Humidity: 88%
Barometer: 1014.9 hPa
Summary: Mist
Clouds: Clear
Visibility: 5 km
2019/07/18 07:05 KHUL 180705Z AUTO 12003KT 3SM BR CLR 11/09 A2997 RMK AO2 T01060094
KPQI - Presque Isle, Maine, USA
Distance from station: NW 137km
Updated: Thu, 18-Jul-2019 3:56am ADT
Clear
Clear
 Wind from WNW
Wind: WNW 7 km/h
Temperature: 13°C
Dew Point: 9°C
Humidity: 77%
Barometer: 1015.6 hPa
Clouds: Clear
Visibility: 16 km
2019/07/18 06:56 KPQI 180656Z AUTO 30004KT 10SM CLR 13/09 A2999 RMK AO2 SLP179 T01280089
 
KCAR - Caribou, Maine, USA
Distance from station: NW 151km
Updated: Thu, 18-Jul-2019 3:54am ADT
Clear
Clear
 Wind from NNW
Wind: NNW 13 km/h
Temperature: 13°C
Dew Point: 8°C
Humidity: 72%
Barometer: 1014.9 hPa
Clouds: Clear
Visibility: 16 km
2019/07/18 06:54 KCAR 180654Z AUTO 34007KT 10SM CLR 13/08 A2997 RMK AO2 SLP151 T01280083
KMLT - Millinocket, Maine, USA
Distance from station: W 157km
Updated: Thu, 18-Jul-2019 3:53am ADT
Clear
Clear
 Wind from calm
Wind: Calm
Temperature: 14°C
Dew Point: 9°C
Humidity: 72%
Barometer: 1015.6 hPa
Clouds: Clear
Visibility: 16 km
2019/07/18 06:53 KMLT 180653Z AUTO 00000KT 10SM CLR 14/09 A2999 RMK AO2 SLP159 T01440094
 
KBGR - Bangor, Maine, USA
Distance from station: SW 203km
Updated: Thu, 18-Jul-2019 3:53am ADT
Clear
Clear
 Wind from N
Wind: N 19 km/h
Temperature: 18°C
Dew Point: 13°C
Humidity: 73%
Barometer: 1014.6 hPa
Clouds: Clear
Visibility: 16 km
2019/07/18 06:53 KBGR 180653Z 01010KT 10SM CLR 18/13 A2996 RMK AO2 SLP141 T01780128
KBHB - Bar Harbor, Maine, USA
Distance from station: SW 204km
Updated: Thu, 18-Jul-2019 3:56am ADT
Clear
Clear
 Wind from calm
Wind: Calm
Temperature: 16°C
Dew Point: 15°C
Humidity: 94%
Barometer: 1013.9 hPa
Clouds: Clear
Visibility: 16 km
2019/07/18 06:56 KBHB 180656Z AUTO 00000KT 10SM CLR 16/15 A2994 RMK AO2 SLP141 T01610150
 
CWIY - St Leonard Autob, New Brunswick
Distance from station: NNW 166km
Updated: Sun, 05-Feb-2017 10:00am AST
NOT Current

 Wind from SE
Wind: SE 15 km/h
Temperature: -15°C
Wind Chill: -23°C
Dew Point: -16°C
Humidity: 92%
2017/02/05 14:00 CWIY 051400Z AUTO 14008KT M15/M16 RMK AO1 SLP145 T11511164 58018
CYSL - Saint Leonard Ar, New Brunswick
Distance from station: NNW 166km
Updated: Mon, 30-Jun-2014 5:00pm ADT
NOT Current
Haze, Partly cloudy
Haze, Partly cloudy
 Wind from W
Wind: W 9 km/h
Temperature: 30°C
Heat Index: 31°C
Dew Point: 17°C
Humidity: 46%
Barometer: 1009.8 hPa
Summary: Haze
Clouds: Partly cloudy
Visibility: 5 km
Cloud details: Partly cloudy 914 m
2014/06/30 20:00 CYSL 302000Z 28005KT 3SM HZ SCT030 30/17 A2982 RMK CU4 LAST OFFICIAL OBS/STATION CLOSING PERMANENTLY/ ANY OBS AFTER THIS IS NOT DONE BY CERTIFIED PERSON/ SLP097
 
CWVU - Brier Island(Aut, Nova Scotia
Distance from station: S 177km
Updated: Thu, 18-Jul-2019 4:00am ADT

 Wind from NNE
Wind: NNE 15 km/h
Temperature: 13°C
Dew Point: 13°C
Humidity: 100%
2019/07/18 07:00 CWVU 180700Z AUTO 02008KT 13/13 RMK AO1 SLP140 T01290129 53013
CXNP - Nappan (auto), Nova Scotia
Distance from station: E 191km
Updated: Thu, 18-Jul-2019 4:00am ADT

 Wind from N
Wind: N 2 km/h
Temperature: 16°C
Dew Point: 14°C
Humidity: 88%
2019/07/18 07:00 CXNP 180700Z AUTO 35001KT 16/14 RMK AO1 SLP118 T01570137 51016
 
CXKT - Kentville (autob, Nova Scotia
Distance from station: ESE 193km
Updated: Thu, 18-Jul-2019 4:00am ADT

 Wind from NNW
Wind: NNW 9 km/h
Temperature: 19°C
Dew Point: 16°C
Humidity: 83%
2019/07/18 07:00 CXKT 180700Z AUTO 34005KT 19/16 RMK AO1 SLP111 T01880159 50017
CWKG - Kejimkujik (au8), Nova Scotia
Distance from station: SE 197km
Updated: Thu, 18-Jul-2019 4:00am ADT

 Wind from N
Wind: N 6 km/h
Temperature: 19°C
Dew Point: 18°C
Humidity: 94%
2019/07/18 07:00 CWKG 180700Z AUTO 36003KT 19/18 RMK AO1 SLP115 T01870183 53007
 
KFVE - Frenchville, Maine, USA
Distance from station: NW 201km
Updated: Thu, 18-Jul-2019 3:53am ADT
Clear
Clear
 Wind from NNW
Wind: NNW 11 km/h
Temperature: 9°C
Wind Chill: 7°C
Dew Point: 8°C
Humidity: 94%
Barometer: 1015.6 hPa
Clouds: Clear
Visibility: 16 km
2019/07/18 06:53 KFVE 180653Z AUTO 34006KT 10SM CLR 09/08 A2999 RMK AO2 SLP154 T00940078
CZBF - Bathurst Arpt(Aw, New Brunswick
Distance from station: NNE 208km
Updated: Thu, 18-Jul-2019 4:00am ADT
Clear
Clear
 Wind from WNW
Wind: WNW 7 km/h
Temperature: 14°C
Dew Point: 9°C
Humidity: 72%
Barometer: 1013.2 hPa
Clouds: Clear
Visibility: 14 km
2019/07/18 07:00 CZBF 180700Z AUTO 29004KT 9SM CLR 14/09 A2992 RMK SLP132
 
CERM - Edmunston, New Brunswick
Distance from station: NW 213km
Updated: Thu, 18-Jul-2019 4:00am ADT

 Wind from NNE
Wind: NNE 2 km/h
Temperature: 7°C
Dew Point: 6°C
Humidity: 93%
2019/07/18 07:00 CERM 180700Z AUTO 03001KT 07/06 RMK AO1 SLP162 T00650060 53018
KGNR - Greenville, Maine, USA
Distance from station: W 226km
Updated: Thu, 18-Jul-2019 3:56am ADT

 Wind from NNE
Wind: NNE 9 km/h
Temperature: 14°C
Dew Point: 9°C
Humidity: 72%
Barometer: 1015.6 hPa
2019/07/18 06:56 KGNR 180656Z AUTO 03005KT 14/09 A2999 RMK AO1 SLP153 T01390089
 
CWSD - Summerside (auto, PEI
Distance from station: ENE 228km
Updated: Thu, 18-Jul-2019 4:00am ADT

 Wind from WNW
Wind: WNW 9 km/h
Temperature: 15°C
Dew Point: 14°C
Humidity: 94%
2019/07/18 07:00 CWSD 180700Z AUTO 30005KT 15/14 RMK AO1 SLP109 T01510135 52021
K40B - Clayton Lake, Maine, USA
Distance from station: WNW 233km
Updated: Thu, 18-Jul-2019 4:16am ADT

 Wind from calm
Wind: Calm
Temperature: 9°C
Barometer: 1016.9 hPa
2019/07/18 07:16 K40B 180716Z AUTO 00000KT 09/ A3003 RMK AO1 SLP166 T0088 52014 P0000
 
CZCR - Charlo Airport, New Brunswick
Distance from station: N 236km
Updated: Thu, 18-Jul-2019 4:00am ADT

 Wind from W
Wind: W 11 km/h
Temperature: 14°C
Dew Point: 10°C
Humidity: 77%
2019/07/18 07:00 CZCR 180700Z AUTO 26006KT 14/10 RMK AO1 SLP133 T01400095 52021
CWNE - North Point (aut, Ontario
Distance from station: NE 246km
Updated: Thu, 18-Jul-2019 4:00am ADT

 Wind from NW
Wind: NW 30 km/h
Temperature: 18°C
Dew Point: 14°C
Humidity: 78%
2019/07/18 07:00 CWNE 180700Z AUTO 31016KT 18/14 RMK AO1 PK WND 31018/0654 SLP106 T01760142 53015
 
CXLB - Lunenburg, Nova Scotia
Distance from station: SE 250km
Updated: Thu, 18-Jul-2019 4:00am ADT

 Wind from WNW
Wind: WNW 6 km/h
Temperature: 20°C
Dew Point: 19°C
Humidity: 94%
2019/07/18 07:00 CXLB 180700Z AUTO 30003KT 20/19 RMK AO1 SLP101 T02000194 52007
CZDB - Debert, Nova Scotia
Distance from station: E 255km
Updated: Thu, 18-Jul-2019 4:00am ADT

 Wind from N
Wind: N 4 km/h
Temperature: 18°C
Dew Point: 14°C
Humidity: 78%
2019/07/18 07:00 CZDB 180700Z AUTO 36002KT 18/14 RMK AO1 SLP107 T01760135 51014
 
CWOC - New Carlisle1, Quebec
Distance from station: NNE 262km
Updated: Thu, 18-Jul-2019 4:00am ADT

 Wind from N
Wind: N 4 km/h
Temperature: 13°C
Dew Point: 10°C
Humidity: 82%
2019/07/18 07:00 CWOC 180700Z AUTO 01002KT 13/10 RMK AO1 SLP120 T01280095 53024
CWWE - Western Head (ma, Nova Scotia
Distance from station: SE 264km
Updated: Thu, 18-Jul-2019 4:00am ADT

 Wind from W
Wind: W 6 km/h
Temperature: 16°C
Dew Point: 16°C
Humidity: 100%
2019/07/18 07:00 CWWE 180700Z AUTO 28003KT 16/16 RMK AO1 SLP105 T01640163 52003
 
KRKD - Rockland/Knox, Maine, USA
Distance from station: SW 274km
Updated: Thu, 18-Jul-2019 3:56am ADT
Clear
Clear
 Wind from NNE
Wind: NNE 17 km/h, Gust: 26 km/h
Temperature: 19°C
Dew Point: 14°C
Humidity: 73%
Barometer: 1013.5 hPa
Clouds: Clear
Visibility: 16 km
2019/07/18 06:56 KRKD 180656Z AUTO 03009G14KT 10SM CLR 19/14 A2993 RMK AO2 SLP134 T01940139
CAHR - Harrington Cda, Ontario
Distance from station: ENE 277km
Updated: Thu, 18-Jul-2019 4:00am ADT

 Wind from N
Wind: N 15 km/h
Temperature: 17°C
Dew Point: 12°C
Humidity: 73%
2019/07/18 07:00 CAHR 180700Z AUTO 36008KT 17/12 RMK AO1 SLP104 T01680119 51023
 
KWVL - Waterville, Maine, USA
Distance from station: WSW 277km
Updated: Thu, 18-Jul-2019 3:56am ADT
Clear
Clear
 Wind from NNE
Wind: NNE 9 km/h
Temperature: 18°C
Dew Point: 15°C
Humidity: 83%
Barometer: 1013.9 hPa
Clouds: Clear
Visibility: 16 km
2019/07/18 06:56 KWVL 180656Z AUTO 02005KT 10SM CLR 18/15 A2994 RMK AO2 SLP163 T01780150
CYYG - Charlottetown Ar, PEI
Distance from station: E 280km
Updated: Thu, 18-Jul-2019 4:00am ADT
Partly cloudy
Partly cloudy
 Wind from N
Wind: N 9 km/h
Temperature: 16°C
Dew Point: 14°C
Humidity: 88%
Barometer: 1010.5 hPa
Clouds: Partly cloudy
Visibility: 24 km
Cloud details: Partly cloudy 1646 m
Partly cloudy 3048 m
2019/07/18 07:00 CYYG 180700Z 36005KT 15SM SCT054 SCT100 16/14 A2984 RMK SC3AC1 SLP107 DENSITY ALT 500FT
 
CXMI - Mcnabs Island, Nova Scotia
Distance from station: ESE 284km
Updated: Wed, 29-May-2019 1:00am ADT
NOT Current

 Wind from W
Wind: W 4 km/h
Temperature: 7°C
2019/05/29 04:00 CXMI 290400Z AUTO 27002KT 07/ RMK AO1 SLP137 T0066 58001
CWZS - Amqui, Quebec
Distance from station: N 296km
Updated: Mon, 08-Jul-2019 7:00pm ADT
NOT Current

 Wind from SSW
Wind: SSW 7 km/h
Temperature: 15°C
Dew Point: 13°C
Humidity: 88%
2019/07/08 22:00 CWZS 082200Z AUTO 20004KT 15/13 RMK AO1 SLP080 T01490131 50015
 
KAUG - Augusta, Maine, USA
Distance from station: SW 298km
Updated: Thu, 18-Jul-2019 3:53am ADT
Clear
Clear
 Wind from N
Wind: N 13 km/h
Temperature: 19°C
Dew Point: 16°C
Humidity: 83%
Barometer: 1014.6 hPa
Clouds: Clear
Visibility: 16 km
2019/07/18 06:53 KAUG 180653Z AUTO 01007KT 10SM CLR 19/16 A2996 RMK AO2 SLP142 T01890161
CWST - La Pocatiere, Quebec
Distance from station: NW 303km
Updated: Thu, 18-Jul-2019 4:00am ADT

 Wind from ESE
Wind: ESE 7 km/h
Temperature: 11°C
Dew Point: 9°C
Humidity: 88%
2019/07/18 07:00 CWST 180700Z AUTO 12004KT 11/09 RMK AO1 SLP163 T01070089 51009
 
CWNH - Riviere Du Loup, Quebec
Distance from station: NW 304km
Updated: Thu, 18-Jul-2019 4:00am ADT

 Wind from SSW
Wind: SSW 2 km/h
Temperature: 11°C
Dew Point: 8°C
Humidity: 82%
2019/07/18 07:00 CWNH 180700Z AUTO 20001KT 11/08 RMK AO1 SLP167 T01060080 51013
CWBK - Caribou Point(Ma, Nova Scotia
Distance from station: E 312km
Updated: Thu, 18-Jul-2019 4:00am ADT

 Wind from N
Wind: N 7 km/h
Temperature: 19°C
Dew Point: 14°C
Humidity: 73%
2019/07/18 07:00 CWBK 180700Z AUTO 35004KT 19/14 RMK AO1 SLP099 T01870136 51025
 
CWHV - Beauceville, Quebec
Distance from station: W 317km
Updated: Thu, 18-Jul-2019 4:00am ADT

 Wind from NW
Wind: NW 2 km/h
Temperature: 11°C
Dew Point: 10°C
Humidity: 94%
2019/07/18 07:00 CWHV 180700Z AUTO 32001KT 11/10 RMK AO1 SLP171 T01050100 51017
KIWI - Wiscasset, Maine, USA
Distance from station: SW 318km
Updated: Thu, 18-Jul-2019 3:53am ADT
Clear
Clear
 Wind from varies
Wind: varies 6 km/h
Temperature: 20°C
Dew Point: 18°C
Humidity: 88%
Barometer: 1013.9 hPa
Clouds: Clear
Visibility: 16 km
2019/07/18 06:53 KIWI 180653Z AUTO VRB03KT 10SM CLR 20/18 A2994 RMK AO2 SLP139 T02000183